This is the latest recevied weather packets stored in our database for station/object WD9GET. If no packets are shown the sender has not sent any weather packets the latest 10 day(s).
| Time | Temp. | Humidity | Pressure | Rain* | Wind** | Luminosity | Snow |
|---|---|---|---|---|---|---|---|
| 1777659912 | 17.78° C | 98% | 1008.6 hPa | 0 mm | - | 22 W/m² | - |
| 1777659817 | 17.78° C | 98% | 1008.5 hPa | 0 mm | - | 28 W/m² | - |
| 1777659746 | 17.78° C | 98% | 1008.6 hPa | 0 mm | - | 32 W/m² | - |
| 1777659685 | 17.78° C | 98% | 1008.6 hPa | 0 mm | - | 32 W/m² | - |
| 1777659625 | 17.78° C | 98% | 1008.5 hPa | 0 mm | - | 38 W/m² | - |
| 1777659566 | 17.78° C | 98% | 1008.6 hPa | 0 mm | - | 39 W/m² | - |
| 1777659499 | 17.78° C | 98% | 1008.5 hPa | 0 mm | - | 56 W/m² | - |
| 1777659439 | 17.78° C | 98% | 1008.5 hPa | 0 mm | - | 56 W/m² | - |
| 1777659380 | 17.78° C | 98% | 1008.5 hPa | 0 mm | - | 56 W/m² | - |
| 1777659319 | 17.78° C | 98% | 1008.6 hPa | 0 mm | - | 59 W/m² | - |
| 1777659259 | 17.78° C | 98% | 1008.6 hPa | 0 mm | - | 46 W/m² | - |
| 1777659200 | 17.78° C | 98% | 1008.6 hPa | 0 mm | - | 46 W/m² | - |
| 1777659134 | 17.78° C | 98% | 1008.6 hPa | 0 mm | - | 46 W/m² | - |
| 1777659067 | 17.78° C | 98% | 1008.6 hPa | 0 mm | - | 50 W/m² | - |
| 1777659009 | 17.78° C | 98% | 1008.9 hPa | 0 mm | - | 31 W/m² | - |
| 1777658952 | 17.78° C | 98% | 1008.9 hPa | 0 mm | - | 31 W/m² | - |
| 1777658888 | 17.78° C | 98% | 1008.9 hPa | 0 mm | - | 31 W/m² | - |
| 1777658828 | 17.78° C | 98% | 1009.3 hPa | 0 mm | - | 20 W/m² | - |
| 1777658768 | 17.78° C | 98% | 1009.3 hPa | 0 mm | - | 20 W/m² | - |
| 1777658707 | 17.78° C | 98% | 1009.5 hPa | 0 mm | - | 13 W/m² | - |
| 1777658650 | 17.78° C | 98% | 1009.5 hPa | 0 mm | - | 13 W/m² | - |
| 1777658588 | 17.78° C | 98% | 1009.5 hPa | 0 mm | - | 12 W/m² | - |
| 1777658527 | 17.78° C | 98% | 1009.5 hPa | 0 mm | - | 11 W/m² | - |
| 1777658466 | 17.78° C | 98% | 1009.4 hPa | 0.25 mm | - | 12 W/m² | - |
| 1777658408 | 17.78° C | 98% | 1009.4 hPa | 0.25 mm | - | 12 W/m² | - |
* Rain latest hour (hover to see other rain measurements)
** Current wind speed in m/s (hover to see current wind gust speed)